createdAt,value
2023-02-11T00:00:21.684Z,85.00
2023-02-11T00:02:48.352Z,85.52
2023-02-11T00:05:15.273Z,85.97
2023-02-11T00:07:41.881Z,85.23
2023-02-11T00:10:08.952Z,85.04
2023-02-11T00:12:36.132Z,84.91
2023-02-11T00:15:03.098Z,84.95
2023-02-11T00:17:29.680Z,85.43
2023-02-11T00:19:56.318Z,84.36
2023-02-11T00:22:23.007Z,85.85
2023-02-11T00:24:49.610Z,85.87
2023-02-11T00:27:16.197Z,84.63
2023-02-11T00:29:42.700Z,85.11
2023-02-11T00:32:09.724Z,84.76
2023-02-11T00:34:36.420Z,85.11
2023-02-11T00:37:03.131Z,84.58
2023-02-11T00:39:29.724Z,84.50
2023-02-11T00:41:56.489Z,84.90
2023-02-11T00:44:23.070Z,85.29
2023-02-11T00:46:49.703Z,85.54
2023-02-11T00:49:16.381Z,84.34
2023-02-11T00:51:43.000Z,85.35
2023-02-11T00:54:09.559Z,85.53
2023-02-11T00:56:36.194Z,86.03
2023-02-11T00:59:02.826Z,86.61
2023-02-11T01:01:29.603Z,85.86
2023-02-11T01:03:56.321Z,85.46
2023-02-11T01:06:23.049Z,85.22
2023-02-11T01:08:49.666Z,85.54
2023-02-11T01:11:18.742Z,85.81
2023-02-11T01:13:45.661Z,85.55
2023-02-11T01:16:12.416Z,85.54
2023-02-11T01:18:39.181Z,85.38
2023-02-11T01:21:05.732Z,85.51
2023-02-11T01:23:32.423Z,85.45
2023-02-11T01:25:59.272Z,85.20
2023-02-11T01:28:26.997Z,85.32
2023-02-11T01:30:53.771Z,85.58
2023-02-11T01:33:20.629Z,86.41
2023-02-11T01:35:47.255Z,86.48
2023-02-11T01:38:18.861Z,85.56
2023-02-11T01:40:53.390Z,86.07
2023-02-11T01:43:20.325Z,86.57
2023-02-11T01:45:53.060Z,86.05
2023-02-11T01:48:22.723Z,85.95
2023-02-11T01:50:51.192Z,86.00
2023-02-11T01:53:17.922Z,86.29
2023-02-11T01:55:44.545Z,86.97
2023-02-11T01:58:11.098Z,87.15
2023-02-11T02:00:38.243Z,87.70
2023-02-11T02:03:14.428Z,88.10
2023-02-11T02:06:00.617Z,87.71
2023-02-11T02:08:35.059Z,87.90
2023-02-11T02:11:01.867Z,87.53
2023-02-11T02:13:30.224Z,88.08
2023-02-11T02:15:58.745Z,88.02
2023-02-11T02:18:56.386Z,87.22
2023-02-11T02:22:00.219Z,87.80
2023-02-11T02:24:41.330Z,87.08
2023-02-11T02:27:26.005Z,86.98
2023-02-11T02:30:20.368Z,86.18
2023-02-11T02:33:20.484Z,86.57
2023-02-11T02:36:02.699Z,86.39
2023-02-11T02:38:38.122Z,87.35
2023-02-11T02:41:08.491Z,87.62
2023-02-11T02:43:36.065Z,86.48
2023-02-11T02:46:14.632Z,87.00
2023-02-11T02:48:41.324Z,87.38
2023-02-11T02:51:35.377Z,87.38
2023-02-11T02:54:26.525Z,86.70
2023-02-11T02:57:17.504Z,87.00
2023-02-11T02:59:52.038Z,87.28
2023-02-11T03:02:40.729Z,87.05
2023-02-11T03:05:12.130Z,87.79
2023-02-11T03:07:41.540Z,87.61
2023-02-11T03:10:11.118Z,87.42
2023-02-11T03:12:37.678Z,87.43
2023-02-11T03:15:04.965Z,87.15
2023-02-11T03:17:31.505Z,88.29
2023-02-11T03:19:58.168Z,88.05
2023-02-11T03:22:32.627Z,88.37
2023-02-11T03:24:59.186Z,88.11
2023-02-11T03:27:40.725Z,86.57
2023-02-11T03:30:11.575Z,87.30
2023-02-11T03:32:43.123Z,87.35
2023-02-11T03:35:36.754Z,86.72
2023-02-11T03:38:09.290Z,87.10
2023-02-11T03:40:36.695Z,87.42
2023-02-11T03:43:06.763Z,87.43
2023-02-11T03:45:33.401Z,87.82
2023-02-11T03:48:02.179Z,87.94
2023-02-11T03:50:29.918Z,87.70
2023-02-11T03:52:56.544Z,87.29
2023-02-11T03:55:23.293Z,86.66
2023-02-11T03:57:49.890Z,87.71
2023-02-11T04:00:16.492Z,87.57
2023-02-11T04:02:43.358Z,88.08
2023-02-11T04:05:11.602Z,87.81
2023-02-11T04:07:38.166Z,87.66
2023-02-11T04:10:05.068Z,88.46
2023-02-11T04:12:31.664Z,88.43
2023-02-11T04:14:58.235Z,88.63
2023-02-11T04:17:24.756Z,88.89
2023-02-11T04:19:51.313Z,88.52
2023-02-11T04:22:17.893Z,89.02
2023-02-11T04:24:44.453Z,88.76
2023-02-11T04:27:11.070Z,88.97
2023-02-11T04:29:37.735Z,89.68
2023-02-11T04:32:04.342Z,89.16
2023-02-11T04:34:31.078Z,88.38
2023-02-11T04:36:57.559Z,87.94
2023-02-11T04:39:24.104Z,87.82
2023-02-11T04:41:50.644Z,87.73
2023-02-11T04:44:17.280Z,89.10
2023-02-11T04:46:43.834Z,88.56
2023-02-11T04:49:13.120Z,88.70
2023-02-11T04:51:39.800Z,89.30
2023-02-11T04:54:06.423Z,89.40
2023-02-11T04:56:33.101Z,89.16
2023-02-11T04:58:59.665Z,88.91
2023-02-11T05:01:26.372Z,88.88
2023-02-11T05:03:53.102Z,89.60
2023-02-11T05:06:19.686Z,88.87
2023-02-11T05:08:46.325Z,88.45
2023-02-11T05:11:16.035Z,88.54
2023-02-11T05:13:42.606Z,89.65
2023-02-11T05:16:09.625Z,88.92
2023-02-11T05:18:39.811Z,88.68
2023-02-11T05:21:10.265Z,89.16
2023-02-11T05:23:36.935Z,88.62
2023-02-11T05:26:03.748Z,88.86
2023-02-11T05:28:30.335Z,88.85
2023-02-11T05:30:59.676Z,89.54
2023-02-11T05:33:26.324Z,88.78
2023-02-11T05:35:53.162Z,90.14
2023-02-11T05:38:19.740Z,90.26
2023-02-11T05:40:46.270Z,89.18
2023-02-11T05:43:12.965Z,89.46
2023-02-11T05:45:39.513Z,89.81
2023-02-11T05:48:06.384Z,88.47
2023-02-11T05:50:33.126Z,88.47
2023-02-11T05:52:59.679Z,88.57
2023-02-11T05:55:26.537Z,88.09
2023-02-11T05:57:55.959Z,88.86
2023-02-11T06:00:22.514Z,88.63
2023-02-11T06:02:49.131Z,88.98
2023-02-11T06:05:15.697Z,88.79
2023-02-11T06:07:42.254Z,88.63
2023-02-11T06:10:09.024Z,88.73
2023-02-11T06:12:36.452Z,89.68
2023-02-11T06:15:03.133Z,89.78
2023-02-11T06:17:29.834Z,89.93
2023-02-11T06:19:56.368Z,90.19
2023-02-11T06:22:22.938Z,89.84
2023-02-11T06:25:00.713Z,88.95
2023-02-11T06:27:28.431Z,89.09
2023-02-11T06:29:55.005Z,89.13
2023-02-11T06:32:42.272Z,89.63
2023-02-11T06:35:11.375Z,89.42
2023-02-11T06:37:38.368Z,90.52
2023-02-11T06:40:05.222Z,90.16
2023-02-11T06:42:31.836Z,90.57
2023-02-11T06:44:58.374Z,90.24
2023-02-11T06:47:25.002Z,90.42
2023-02-11T06:49:51.496Z,90.33
2023-02-11T06:52:18.050Z,90.63
2023-02-11T06:54:44.621Z,90.46
2023-02-11T06:57:11.155Z,90.03
2023-02-11T06:59:37.703Z,88.64
2023-02-11T07:02:12.598Z,88.94
2023-02-11T07:04:39.286Z,89.55
2023-02-11T07:07:06.070Z,89.72
2023-02-11T07:09:32.544Z,90.47
2023-02-11T07:11:59.268Z,90.19
2023-02-11T07:14:25.783Z,89.71
2023-02-11T07:16:52.304Z,89.55
2023-02-11T07:19:18.904Z,90.09
2023-02-11T07:21:45.649Z,89.96
2023-02-11T07:24:12.886Z,89.96
2023-02-11T07:26:39.757Z,90.44
2023-02-11T07:29:06.573Z,90.20
2023-02-11T07:31:33.340Z,90.00
2023-02-11T07:34:01.611Z,89.68
2023-02-11T07:36:28.950Z,89.85
2023-02-11T07:38:55.750Z,89.70
2023-02-11T07:41:22.890Z,90.68
2023-02-11T07:43:49.723Z,90.28
2023-02-11T07:46:21.532Z,90.70
2023-02-11T07:48:48.490Z,90.74
2023-02-11T07:51:25.734Z,90.73
2023-02-11T07:53:52.593Z,90.16
2023-02-11T07:56:19.654Z,89.91
2023-02-11T07:58:46.628Z,89.84
2023-02-11T08:01:18.233Z,90.00
2023-02-11T08:03:45.276Z,88.77
2023-02-11T08:06:13.675Z,87.65
2023-02-11T08:08:40.481Z,87.93
2023-02-11T08:11:12.038Z,86.67
2023-02-11T08:13:38.702Z,85.80
2023-02-11T08:16:05.604Z,86.34
2023-02-11T08:18:32.608Z,87.05
2023-02-11T08:21:08.821Z,86.32
2023-02-11T08:23:39.216Z,86.19
2023-02-11T08:26:07.249Z,85.74
2023-02-11T08:28:37.859Z,86.52
2023-02-11T08:31:15.133Z,86.64
2023-02-11T08:33:41.721Z,86.37
2023-02-11T08:36:09.609Z,86.22
2023-02-11T08:38:37.860Z,85.53
2023-02-11T08:41:04.607Z,85.72
2023-02-11T08:43:31.168Z,84.94
2023-02-11T08:46:00.162Z,86.99
2023-02-11T08:48:28.817Z,85.80
2023-02-11T08:50:56.059Z,86.70
2023-02-11T08:53:22.752Z,85.88
2023-02-11T08:55:53.545Z,84.23
2023-02-11T08:58:20.836Z,84.24
2023-02-11T09:00:48.015Z,83.47
2023-02-11T09:03:14.887Z,83.39
2023-02-11T09:05:45.900Z,82.72
2023-02-11T09:08:12.929Z,80.70
2023-02-11T09:10:39.515Z,81.31
2023-02-11T09:13:06.516Z,80.64
2023-02-11T09:15:33.135Z,79.32
2023-02-11T09:17:59.655Z,73.71
2023-02-11T09:20:26.633Z,65.32
2023-02-11T09:22:54.098Z,56.21
2023-02-11T09:25:20.872Z,54.43
2023-02-11T09:27:47.334Z,49.22
2023-02-11T09:30:13.879Z,51.55
2023-02-11T09:32:40.371Z,50.85
2023-02-11T09:35:07.517Z,47.94
2023-02-11T09:37:36.317Z,44.29
2023-02-11T09:40:03.993Z,47.92
2023-02-11T09:42:39.400Z,51.70
2023-02-11T09:45:22.575Z,55.78
2023-02-11T09:47:55.055Z,56.52
2023-02-11T09:50:34.290Z,57.75
2023-02-11T09:53:30.456Z,58.66
2023-02-11T09:56:01.779Z,58.83
2023-02-11T09:58:39.606Z,59.81
2023-02-11T10:01:27.488Z,61.20
2023-02-11T10:04:06.142Z,64.10
2023-02-11T10:06:35.535Z,63.52
2023-02-11T10:09:11.652Z,63.31
2023-02-11T10:11:49.808Z,63.68
2023-02-11T10:14:37.919Z,66.85
2023-02-11T10:17:26.258Z,68.13
2023-02-11T10:20:08.642Z,69.35
2023-02-11T10:22:41.603Z,68.88
2023-02-11T10:25:38.748Z,69.40
2023-02-11T10:28:19.292Z,70.47
2023-02-11T10:31:00.810Z,70.08
2023-02-11T10:33:44.899Z,70.96
2023-02-11T10:36:12.023Z,70.71
2023-02-11T10:38:38.665Z,71.79
2023-02-11T10:41:05.545Z,71.06
2023-02-11T10:43:32.243Z,71.63
2023-02-11T10:45:59.158Z,71.32
2023-02-11T10:48:45.051Z,72.37
2023-02-11T10:51:23.727Z,73.49
2023-02-11T10:54:12.542Z,72.76
2023-02-11T10:56:44.579Z,71.05
2023-02-11T10:59:30.980Z,70.28
2023-02-11T11:01:58.381Z,70.71
2023-02-11T11:04:27.539Z,69.19
2023-02-11T11:06:54.056Z,69.39
2023-02-11T11:09:30.412Z,69.75
2023-02-11T11:11:57.030Z,69.33
2023-02-11T11:14:23.781Z,70.02
2023-02-11T11:16:53.338Z,69.47
2023-02-11T11:19:24.136Z,68.57
2023-02-11T11:21:54.783Z,70.00
2023-02-11T11:24:24.977Z,71.15
2023-02-11T11:26:54.436Z,70.99
2023-02-11T11:29:24.830Z,71.57
2023-02-11T11:31:53.249Z,70.45
2023-02-11T11:34:41.937Z,70.45
2023-02-11T11:37:23.751Z,69.98
2023-02-11T11:39:57.433Z,71.00
2023-02-11T11:42:28.901Z,70.56
2023-02-11T11:45:17.637Z,70.21
2023-02-11T11:48:16.247Z,69.39
2023-02-11T11:50:49.170Z,69.38
2023-02-11T11:53:21.068Z,69.50
2023-02-11T11:56:01.385Z,70.48
2023-02-11T11:58:28.365Z,70.75
2023-02-11T12:01:07.074Z,70.36
2023-02-11T12:03:57.935Z,69.43
2023-02-11T12:06:32.884Z,69.85
2023-02-11T12:09:41.495Z,69.66
2023-02-11T12:12:26.223Z,69.17
2023-02-11T12:15:25.037Z,69.13
2023-02-11T12:18:16.449Z,69.57
2023-02-11T12:21:11.752Z,69.21
2023-02-11T12:23:54.134Z,69.45
2023-02-11T12:26:22.889Z,68.58
2023-02-11T12:29:07.733Z,68.66
2023-02-11T12:31:59.009Z,68.41
2023-02-11T12:34:55.045Z,68.03
2023-02-11T12:37:30.981Z,67.41
2023-02-11T12:40:09.170Z,69.72
2023-02-11T12:42:47.006Z,68.75
2023-02-11T12:45:28.503Z,68.09
2023-02-11T12:48:26.761Z,67.35
2023-02-11T12:51:12.007Z,68.31
2023-02-11T12:54:12.472Z,67.82
2023-02-11T12:56:48.031Z,68.56
2023-02-11T12:59:33.676Z,67.88
2023-02-11T13:02:00.275Z,68.26
2023-02-11T13:04:48.226Z,67.91
2023-02-11T13:07:21.458Z,67.23
2023-02-11T13:10:02.729Z,67.10
2023-02-11T13:12:29.684Z,66.35
2023-02-11T13:14:56.862Z,66.98
2023-02-11T13:17:30.805Z,66.29
2023-02-11T13:20:03.886Z,66.16
2023-02-11T13:22:40.015Z,66.94
2023-02-11T13:25:33.268Z,67.84
2023-02-11T13:28:32.131Z,67.75
2023-02-11T13:31:08.032Z,67.96
2023-02-11T13:33:40.757Z,68.02
2023-02-11T13:36:17.221Z,67.82
2023-02-11T13:39:12.960Z,68.85
2023-02-11T13:41:43.039Z,68.70
2023-02-11T13:44:19.234Z,68.72
2023-02-11T13:46:54.619Z,69.34
2023-02-11T13:49:42.477Z,69.29
2023-02-11T13:52:30.852Z,69.65
2023-02-11T13:55:20.503Z,70.21
2023-02-11T13:58:08.272Z,69.67
2023-02-11T14:00:34.905Z,69.58
2023-02-11T14:03:10.307Z,70.40
2023-02-11T14:05:36.933Z,69.22
2023-02-11T14:08:09.402Z,70.48
2023-02-11T14:10:41.985Z,70.33
2023-02-11T14:13:35.454Z,71.12
2023-02-11T14:16:09.177Z,70.05
2023-02-11T14:18:44.553Z,70.51
2023-02-11T14:21:26.250Z,70.93
2023-02-11T14:23:53.351Z,69.70
2023-02-11T14:26:20.153Z,69.89
2023-02-11T14:28:52.585Z,70.47
2023-02-11T14:31:22.033Z,70.15
2023-02-11T14:34:24.263Z,70.10
2023-02-11T14:37:38.850Z,70.28
2023-02-11T14:40:39.212Z,71.04
2023-02-11T14:43:29.614Z,70.33
2023-02-11T14:45:56.477Z,69.80
2023-02-11T14:48:30.466Z,69.44
2023-02-11T14:51:06.826Z,69.63
2023-02-11T14:53:33.412Z,69.79
2023-02-11T14:55:59.952Z,70.06
2023-02-11T14:58:30.624Z,70.16
2023-02-11T15:01:22.417Z,70.33
2023-02-11T15:03:49.227Z,70.46
2023-02-11T15:06:34.457Z,70.86
2023-02-11T15:09:05.280Z,70.26
2023-02-11T15:11:34.530Z,71.70
2023-02-11T15:14:25.835Z,70.49
2023-02-11T15:16:53.363Z,70.46
2023-02-11T15:19:32.403Z,70.90
2023-02-11T15:22:00.712Z,70.53
2023-02-11T15:24:28.385Z,71.98
2023-02-11T15:26:59.462Z,71.58
2023-02-11T15:29:27.365Z,72.10
2023-02-11T15:32:16.223Z,71.32
2023-02-11T15:34:46.045Z,72.21
2023-02-11T15:37:23.420Z,71.36
2023-02-11T15:39:49.948Z,71.31
2023-02-11T15:42:17.315Z,71.64
2023-02-11T15:44:43.850Z,71.91
2023-02-11T15:47:11.573Z,71.90
2023-02-11T15:49:38.146Z,72.34
2023-02-11T15:52:04.785Z,72.74
2023-02-11T15:54:31.581Z,72.74
2023-02-11T15:57:05.132Z,72.75
2023-02-11T15:59:36.940Z,72.01
2023-02-11T16:02:33.012Z,72.29
2023-02-11T16:05:08.081Z,71.96
2023-02-11T16:07:47.513Z,72.83
2023-02-11T16:10:31.331Z,72.79
2023-02-11T16:13:06.770Z,72.81
2023-02-11T16:15:33.114Z,73.74
2023-02-11T16:18:02.662Z,73.70
2023-02-11T16:20:29.196Z,73.53
2023-02-11T16:22:55.699Z,74.09
2023-02-11T16:25:22.275Z,74.47
2023-02-11T16:27:49.465Z,74.70
2023-02-11T16:30:28.871Z,74.00
2023-02-11T16:32:55.510Z,74.30
2023-02-11T16:35:22.079Z,74.09
2023-02-11T16:37:48.647Z,74.03
2023-02-11T16:40:15.438Z,74.65
2023-02-11T16:42:41.955Z,74.08
2023-02-11T16:45:09.081Z,74.18
2023-02-11T16:47:35.629Z,74.56
2023-02-11T16:50:02.774Z,74.14
2023-02-11T16:52:29.286Z,74.75
2023-02-11T16:54:55.773Z,74.32
2023-02-11T16:57:28.099Z,74.99
2023-02-11T16:59:56.144Z,75.76
2023-02-11T17:02:26.746Z,75.51
2023-02-11T17:04:54.015Z,75.65
2023-02-11T17:07:20.665Z,75.67
2023-02-11T17:09:47.171Z,75.24
2023-02-11T17:12:13.854Z,75.81
2023-02-11T17:14:40.351Z,75.24
2023-02-11T17:17:06.886Z,76.43
2023-02-11T17:19:33.534Z,75.44
2023-02-11T17:22:00.175Z,75.65
2023-02-11T17:24:26.676Z,76.02
2023-02-11T17:26:53.210Z,76.11
2023-02-11T17:29:21.733Z,76.37
2023-02-11T17:31:48.486Z,75.53
2023-02-11T17:34:15.082Z,75.39
2023-02-11T17:36:41.631Z,75.63
2023-02-11T17:39:08.456Z,75.89
2023-02-11T17:41:36.188Z,75.88
2023-02-11T17:44:02.741Z,76.65
2023-02-11T17:46:29.298Z,76.83
2023-02-11T17:48:57.363Z,76.71
2023-02-11T17:51:25.630Z,77.53
2023-02-11T17:53:52.661Z,77.68
2023-02-11T17:56:19.301Z,76.67
2023-02-11T17:58:45.928Z,78.77
2023-02-11T18:01:12.542Z,78.87
2023-02-11T18:03:39.095Z,80.01
2023-02-11T18:06:06.751Z,79.70
2023-02-11T18:08:34.063Z,79.90
2023-02-11T18:11:00.551Z,80.17
2023-02-11T18:13:27.684Z,80.95
2023-02-11T18:15:54.320Z,80.32
2023-02-11T18:18:20.917Z,80.49
2023-02-11T18:20:56.709Z,81.41
2023-02-11T18:23:23.482Z,81.98
2023-02-11T18:25:50.374Z,81.61
2023-02-11T18:28:17.120Z,81.42
2023-02-11T18:30:43.704Z,81.34
2023-02-11T18:33:10.308Z,81.10
2023-02-11T18:35:43.160Z,80.94
2023-02-11T18:38:09.771Z,82.29
2023-02-11T18:40:39.474Z,82.70
2023-02-11T18:43:06.178Z,82.22
2023-02-11T18:45:32.735Z,82.15
2023-02-11T18:47:59.403Z,83.09
2023-02-11T18:50:25.887Z,83.36
2023-02-11T18:52:52.461Z,83.47
2023-02-11T18:55:20.402Z,84.08
2023-02-11T18:57:48.699Z,84.72
2023-02-11T19:00:15.852Z,83.80
2023-02-11T19:02:42.652Z,83.86
2023-02-11T19:05:09.322Z,83.78
2023-02-11T19:07:35.888Z,84.22
2023-02-11T19:10:02.462Z,84.01
2023-02-11T19:12:29.010Z,84.26
2023-02-11T19:14:55.528Z,84.01
2023-02-11T19:17:22.071Z,84.40
2023-02-11T19:19:48.665Z,84.42
2023-02-11T19:22:15.163Z,83.44
2023-02-11T19:24:41.765Z,84.25
2023-02-11T19:27:08.466Z,83.18
2023-02-11T19:29:35.200Z,82.82
2023-02-11T19:32:03.018Z,84.09
2023-02-11T19:34:29.593Z,83.57
2023-02-11T19:36:56.102Z,82.60
2023-02-11T19:39:22.621Z,82.23
2023-02-11T19:41:49.195Z,82.10
2023-02-11T19:44:15.871Z,81.21
2023-02-11T19:46:42.483Z,83.09
2023-02-11T19:49:09.002Z,83.90
2023-02-11T19:51:35.698Z,84.76
2023-02-11T19:54:02.263Z,83.76
2023-02-11T19:56:28.867Z,83.11
2023-02-11T19:58:55.420Z,83.39
2023-02-11T20:01:22.469Z,83.75
2023-02-11T20:03:49.517Z,83.42
2023-02-11T20:06:17.091Z,84.10
2023-02-11T20:08:43.895Z,86.00
2023-02-11T20:11:11.309Z,85.18
2023-02-11T20:13:38.065Z,85.93
2023-02-11T20:16:06.354Z,85.28
2023-02-11T20:18:32.888Z,85.55
2023-02-11T20:20:59.495Z,84.63
2023-02-11T20:23:26.121Z,84.29
2023-02-11T20:25:52.987Z,85.63
2023-02-11T20:28:19.776Z,84.70
2023-02-11T20:30:54.657Z,84.78
2023-02-11T20:33:21.242Z,83.65
2023-02-11T20:35:54.742Z,84.01
2023-02-11T20:38:21.315Z,84.39
2023-02-11T20:40:47.887Z,83.54
2023-02-11T20:43:14.368Z,83.35
2023-02-11T20:45:41.080Z,84.19
2023-02-11T20:48:07.677Z,84.16
2023-02-11T20:50:34.514Z,83.63
2023-02-11T20:53:01.065Z,83.47
2023-02-11T20:55:27.574Z,84.08
2023-02-11T20:57:54.284Z,83.88
2023-02-11T21:00:20.964Z,84.64
2023-02-11T21:02:52.037Z,84.05
2023-02-11T21:05:18.715Z,83.94
2023-02-11T21:07:45.272Z,84.66
2023-02-11T21:10:12.006Z,84.17
2023-02-11T21:12:38.622Z,84.29
2023-02-11T21:15:05.388Z,83.67
2023-02-11T21:17:32.169Z,84.26
2023-02-11T21:19:58.703Z,84.25
2023-02-11T21:22:25.299Z,84.23
2023-02-11T21:24:51.923Z,83.91
2023-02-11T21:27:18.490Z,84.88
2023-02-11T21:29:53.692Z,85.17
2023-02-11T21:32:21.278Z,84.95
2023-02-11T21:35:00.611Z,84.63
2023-02-11T21:37:49.629Z,84.44
2023-02-11T21:40:23.433Z,84.10
2023-02-11T21:43:04.841Z,84.12
2023-02-11T21:45:36.073Z,84.21
2023-02-11T21:48:06.857Z,84.26
2023-02-11T21:50:43.393Z,83.78
2023-02-11T21:53:13.439Z,84.69
2023-02-11T21:55:40.886Z,84.29
2023-02-11T21:58:08.269Z,83.35
2023-02-11T22:00:41.162Z,84.48
2023-02-11T22:03:08.351Z,85.38
2023-02-11T22:05:34.951Z,84.61
2023-02-11T22:08:01.722Z,85.02
2023-02-11T22:10:28.481Z,84.96
2023-02-11T22:12:55.010Z,84.53
2023-02-11T22:15:21.658Z,84.79
2023-02-11T22:17:48.319Z,84.43
2023-02-11T22:20:14.853Z,84.87
2023-02-11T22:22:41.342Z,84.43
2023-02-11T22:25:08.082Z,84.82
2023-02-11T22:27:34.673Z,84.31
2023-02-11T22:30:01.328Z,85.45
2023-02-11T22:32:27.887Z,85.39
2023-02-11T22:34:54.400Z,85.07
2023-02-11T22:37:20.909Z,85.65
2023-02-11T22:39:47.575Z,85.03
2023-02-11T22:42:14.148Z,85.25
2023-02-11T22:44:40.690Z,85.18
2023-02-11T22:47:07.273Z,84.68
2023-02-11T22:49:33.780Z,84.94
2023-02-11T22:52:00.347Z,85.41
2023-02-11T22:54:26.966Z,84.64
2023-02-11T22:56:53.492Z,84.54
2023-02-11T22:59:20.038Z,85.54
2023-02-11T23:01:46.624Z,85.41
2023-02-11T23:04:13.954Z,85.88
2023-02-11T23:06:40.500Z,85.84
2023-02-11T23:09:07.971Z,85.15
2023-02-11T23:11:34.545Z,85.41
2023-02-11T23:14:01.354Z,85.53
2023-02-11T23:16:29.781Z,85.48
2023-02-11T23:19:02.777Z,86.23
2023-02-11T23:21:31.285Z,86.87
2023-02-11T23:24:00.980Z,86.52
2023-02-11T23:26:27.768Z,86.09
2023-02-11T23:28:54.338Z,86.26
2023-02-11T23:31:29.056Z,85.74
2023-02-11T23:33:55.691Z,86.19
2023-02-11T23:36:22.612Z,87.01
2023-02-11T23:38:49.238Z,86.48
2023-02-11T23:41:15.876Z,85.59
2023-02-11T23:43:42.543Z,85.51
2023-02-11T23:46:09.703Z,85.63
2023-02-11T23:48:36.436Z,85.35
2023-02-11T23:51:03.409Z,85.36
2023-02-11T23:53:29.955Z,85.29
2023-02-11T23:55:56.798Z,85.65
2023-02-11T23:58:23.494Z,85.91
